createdAt,value
2018-03-08T00:00:06.507Z,10.70
2018-03-08T00:01:06.528Z,10.90
2018-03-08T00:02:06.528Z,10.60
2018-03-08T00:03:06.600Z,10.50
2018-03-08T00:04:06.571Z,10.80
2018-03-08T00:05:06.600Z,10.10
2018-03-08T00:06:06.655Z,10.20
2018-03-08T00:07:06.627Z,10.30
2018-03-08T00:08:06.641Z,10.10
2018-03-08T00:09:06.642Z,10.60
2018-03-08T00:10:06.656Z,11.50
2018-03-08T00:11:06.674Z,11.10
2018-03-08T00:12:06.684Z,10.30
2018-03-08T00:13:06.707Z,11.30
2018-03-08T00:14:06.741Z,11.20
2018-03-08T00:15:06.734Z,10.90
2018-03-08T00:16:06.773Z,10.80
2018-03-08T00:17:06.759Z,11.30
2018-03-08T00:18:06.773Z,10.70
2018-03-08T00:19:06.801Z,11.30
2018-03-08T00:20:06.817Z,11.40
2018-03-08T00:21:06.831Z,11.10
2018-03-08T00:22:06.879Z,12.60
2018-03-08T00:23:06.857Z,11.30
2018-03-08T00:24:06.919Z,11.90
2018-03-08T00:25:06.899Z,11.40
2018-03-08T00:26:06.906Z,12.50
2018-03-08T00:27:06.924Z,12.10
2018-03-08T00:28:06.927Z,11.40
2018-03-08T00:29:06.957Z,12.50
2018-03-08T00:30:06.966Z,12.60
2018-03-08T00:31:07.001Z,12.50
2018-03-08T00:32:07.020Z,12.70
2018-03-08T00:33:07.089Z,12.80
2018-03-08T00:34:07.027Z,12.80
2018-03-08T00:35:07.043Z,12.50
2018-03-08T00:36:07.064Z,12.50
2018-03-08T00:37:07.073Z,13.00
2018-03-08T00:38:07.157Z,12.00
2018-03-08T00:39:07.107Z,12.10
2018-03-08T00:40:07.113Z,11.60
2018-03-08T00:41:07.140Z,11.60
2018-03-08T00:42:07.186Z,11.10
2018-03-08T00:43:07.172Z,10.60
2018-03-08T00:44:07.191Z,11.70
2018-03-08T00:45:07.207Z,11.70
2018-03-08T00:46:07.205Z,11.20
2018-03-08T00:47:07.259Z,11.70
2018-03-08T00:48:07.255Z,11.30
2018-03-08T00:49:07.340Z,11.60
2018-03-08T00:50:07.288Z,11.50
2018-03-08T00:51:07.316Z,11.80
2018-03-08T00:52:07.305Z,11.90
2018-03-08T00:53:07.305Z,12.00
2018-03-08T00:54:07.351Z,12.00
2018-03-08T00:55:07.353Z,12.50
2018-03-08T00:56:07.362Z,11.70
2018-03-08T00:57:07.371Z,13.10
2018-03-08T00:58:07.418Z,12.80
2018-03-08T00:59:07.408Z,12.60
2018-03-08T01:00:07.506Z,12.90
2018-03-08T01:01:07.438Z,13.20
2018-03-08T01:02:07.447Z,13.50
2018-03-08T01:03:07.483Z,12.80
2018-03-08T01:04:07.476Z,13.40
2018-03-08T01:05:07.538Z,11.50
2018-03-08T01:06:07.583Z,12.10
2018-03-08T01:07:07.550Z,11.90
2018-03-08T01:08:07.530Z,12.20
2018-03-08T01:09:07.571Z,11.90
2018-03-08T01:10:07.568Z,12.00
2018-03-08T01:11:07.607Z,12.00
2018-03-08T01:12:07.665Z,11.90
2018-03-08T01:13:07.614Z,12.20
2018-03-08T01:14:07.621Z,12.10
2018-03-08T01:15:07.662Z,12.40
2018-03-08T01:16:07.661Z,11.70
2018-03-08T01:17:07.687Z,12.20
2018-03-08T01:18:07.701Z,11.80
2018-03-08T01:19:07.704Z,11.50
2018-03-08T01:20:07.743Z,11.40
2018-03-08T01:21:07.758Z,11.70
2018-03-08T01:22:07.747Z,11.20
2018-03-08T01:23:07.782Z,11.90
2018-03-08T01:24:07.796Z,12.50
2018-03-08T01:25:07.808Z,12.10
2018-03-08T01:26:07.821Z,13.10
2018-03-08T01:27:07.821Z,13.30
2018-03-08T01:28:07.834Z,12.60
2018-03-08T01:29:07.892Z,12.80
2018-03-08T01:30:07.900Z,12.70
2018-03-08T01:31:07.908Z,13.30
2018-03-08T01:32:08.571Z,13.00
2018-03-08T01:33:07.947Z,12.50
2018-03-08T01:34:07.932Z,13.50
2018-03-08T01:35:07.946Z,12.60
2018-03-08T01:36:07.980Z,12.70
2018-03-08T01:37:07.992Z,12.80
2018-03-08T01:38:07.985Z,12.70
2018-03-08T01:39:08.032Z,12.60
2018-03-08T01:40:08.025Z,12.90
2018-03-08T01:41:08.067Z,13.50
2018-03-08T01:42:08.051Z,12.70
2018-03-08T01:43:08.087Z,13.40
2018-03-08T01:44:08.075Z,12.80
2018-03-08T01:45:08.157Z,13.40
2018-03-08T01:46:08.120Z,13.90
2018-03-08T01:47:08.124Z,12.70
2018-03-08T01:48:08.137Z,12.10
2018-03-08T01:49:08.171Z,12.10
2018-03-08T01:50:08.173Z,11.10
2018-03-08T01:51:08.183Z,11.10
2018-03-08T01:52:08.214Z,11.40
2018-03-08T01:53:08.216Z,11.80
2018-03-08T01:54:08.235Z,10.90
2018-03-08T01:55:08.257Z,11.10
2018-03-08T01:56:08.299Z,11.70
2018-03-08T01:57:08.311Z,11.50
2018-03-08T01:58:08.284Z,11.60
2018-03-08T01:59:08.307Z,11.00
2018-03-08T02:00:08.327Z,12.40
2018-03-08T02:01:08.334Z,12.30
2018-03-08T02:02:08.354Z,12.40
2018-03-08T02:03:08.367Z,12.20
2018-03-08T02:04:08.380Z,12.60
2018-03-08T02:05:08.390Z,12.30
2018-03-08T02:06:08.413Z,13.90
2018-03-08T02:07:08.416Z,13.50
2018-03-08T02:08:08.461Z,14.40
2018-03-08T02:09:08.453Z,14.90
2018-03-08T02:10:08.470Z,15.00
2018-03-08T02:11:08.492Z,14.90
2018-03-08T02:12:08.488Z,15.10
2018-03-08T02:13:08.526Z,15.70
2018-03-08T02:14:08.525Z,16.10
2018-03-08T02:15:08.564Z,16.60
2018-03-08T02:16:08.560Z,16.50
2018-03-08T02:17:08.566Z,17.40
2018-03-08T02:18:08.619Z,17.00
2018-03-08T02:19:08.606Z,17.00
2018-03-08T02:20:08.632Z,17.80
2018-03-08T02:21:08.622Z,17.60
2018-03-08T02:22:08.644Z,17.70
2018-03-08T02:23:08.660Z,18.50
2018-03-08T02:24:08.677Z,19.50
2018-03-08T02:25:08.702Z,19.80
2018-03-08T02:26:08.700Z,18.50
2018-03-08T02:27:08.753Z,19.70
2018-03-08T02:28:08.736Z,20.70
2018-03-08T02:29:08.756Z,21.30
2018-03-08T02:30:08.770Z,21.40
2018-03-08T02:31:08.782Z,21.50
2018-03-08T02:32:08.791Z,21.00
2018-03-08T02:33:08.812Z,20.50
2018-03-08T02:34:08.831Z,21.00
2018-03-08T02:35:08.833Z,20.70
2018-03-08T02:36:08.850Z,21.50
2018-03-08T02:37:08.872Z,21.40
2018-03-08T02:38:08.921Z,21.40
2018-03-08T02:39:08.938Z,21.10
2018-03-08T02:40:08.903Z,22.20
2018-03-08T02:41:08.915Z,21.60
2018-03-08T02:42:08.954Z,21.60
2018-03-08T02:43:08.987Z,21.40
2018-03-08T02:44:08.965Z,21.70
2018-03-08T02:45:08.975Z,20.40
2018-03-08T02:46:09.001Z,20.90
2018-03-08T02:47:09.005Z,20.90
2018-03-08T02:48:09.040Z,20.60
2018-03-08T02:49:09.053Z,20.90
2018-03-08T02:50:09.067Z,21.20
2018-03-08T02:51:09.067Z,20.60
2018-03-08T02:52:09.089Z,21.50
2018-03-08T02:53:09.105Z,21.10
2018-03-08T02:54:09.137Z,22.20
2018-03-08T02:55:09.136Z,21.80
2018-03-08T02:56:09.143Z,22.30
2018-03-08T02:57:09.163Z,21.40
2018-03-08T02:58:09.189Z,21.00
2018-03-08T02:59:09.216Z,21.70
2018-03-08T03:00:09.252Z,21.90
2018-03-08T03:01:09.221Z,22.50
2018-03-08T03:02:09.268Z,22.50
2018-03-08T03:03:09.243Z,21.90
2018-03-08T03:04:09.254Z,21.70
2018-03-08T03:05:09.365Z,21.30
2018-03-08T03:06:09.440Z,21.90
2018-03-08T03:07:09.306Z,22.10
2018-03-08T03:08:09.314Z,23.60
2018-03-08T03:09:09.328Z,23.40
2018-03-08T03:10:09.364Z,24.40
2018-03-08T03:11:09.367Z,24.10
2018-03-08T03:12:09.388Z,24.80
2018-03-08T03:13:09.402Z,24.90
2018-03-08T03:14:09.404Z,25.30
2018-03-08T03:15:09.420Z,26.50
2018-03-08T03:16:09.433Z,27.10
2018-03-08T03:17:09.451Z,27.70
2018-03-08T03:18:09.462Z,27.00
2018-03-08T03:19:09.475Z,28.90
2018-03-08T03:20:09.511Z,30.20
2018-03-08T03:21:09.598Z,28.60
2018-03-08T03:22:09.548Z,29.80
2018-03-08T03:23:09.562Z,28.70
2018-03-08T03:24:09.601Z,26.70
2018-03-08T03:25:09.581Z,27.60
2018-03-08T03:26:09.590Z,28.00
2018-03-08T03:27:09.643Z,27.70
2018-03-08T03:28:09.619Z,26.90
2018-03-08T03:29:09.711Z,27.50
2018-03-08T03:30:09.690Z,27.10
2018-03-08T03:31:09.648Z,27.80
2018-03-08T03:32:09.657Z,27.30
2018-03-08T03:33:09.680Z,25.90
2018-03-08T03:34:09.702Z,26.90
2018-03-08T03:35:09.714Z,24.80
2018-03-08T03:36:09.745Z,25.40
2018-03-08T03:37:09.742Z,25.90
2018-03-08T03:38:09.746Z,25.80
2018-03-08T03:39:09.766Z,25.00
2018-03-08T03:40:09.793Z,23.80
2018-03-08T03:41:09.806Z,25.60
2018-03-08T03:42:09.813Z,24.90
2018-03-08T03:43:09.828Z,25.10
2018-03-08T03:44:09.848Z,24.90
2018-03-08T03:45:09.867Z,26.00
2018-03-08T03:46:09.872Z,26.00
2018-03-08T03:47:09.874Z,27.00
2018-03-08T03:48:09.907Z,25.70
2018-03-08T03:49:09.916Z,26.80
2018-03-08T03:50:09.938Z,26.00
2018-03-08T03:51:09.943Z,27.20
2018-03-08T03:52:10.012Z,28.10
2018-03-08T03:53:10.014Z,28.10
2018-03-08T03:54:10.000Z,27.30
2018-03-08T03:55:10.010Z,27.00
2018-03-08T03:56:10.016Z,27.90
2018-03-08T03:57:10.030Z,29.40
2018-03-08T03:58:10.031Z,28.70
2018-03-08T03:59:10.043Z,28.40
2018-03-08T04:00:10.079Z,27.60
2018-03-08T04:01:10.128Z,27.40
2018-03-08T04:02:10.086Z,28.50
2018-03-08T04:03:10.107Z,29.80
2018-03-08T04:04:10.156Z,30.80
2018-03-08T04:05:10.220Z,30.80
2018-03-08T04:06:10.187Z,32.00
2018-03-08T04:07:10.169Z,33.00
2018-03-08T04:08:10.189Z,32.00
2018-03-08T04:09:10.197Z,32.80
2018-03-08T04:10:10.228Z,33.80
2018-03-08T04:11:10.324Z,33.40
2018-03-08T04:12:10.252Z,33.60
2018-03-08T04:13:10.252Z,34.40
2018-03-08T04:14:10.260Z,34.80
2018-03-08T04:15:10.269Z,35.10
2018-03-08T04:16:10.306Z,35.90
2018-03-08T04:17:10.307Z,35.20
2018-03-08T04:18:10.325Z,36.60
2018-03-08T04:19:10.331Z,36.60
2018-03-08T04:20:10.351Z,35.80
2018-03-08T04:21:10.368Z,34.60
2018-03-08T04:22:10.398Z,36.00
2018-03-08T04:23:10.411Z,35.70
2018-03-08T04:24:10.402Z,35.90
2018-03-08T04:25:10.428Z,37.20
2018-03-08T04:26:10.449Z,36.50
2018-03-08T04:27:10.488Z,35.20
2018-03-08T04:28:10.476Z,36.20
2018-03-08T04:29:10.495Z,38.20
2018-03-08T04:30:10.495Z,37.20
2018-03-08T04:31:10.512Z,38.40
2018-03-08T04:32:10.521Z,38.40
2018-03-08T04:33:10.532Z,37.80
2018-03-08T04:34:10.550Z,37.00
2018-03-08T04:35:10.608Z,39.20
2018-03-08T04:36:10.583Z,39.60
2018-03-08T04:37:10.630Z,39.30
2018-03-08T04:38:10.625Z,39.90
2018-03-08T04:39:10.620Z,39.40
2018-03-08T04:40:10.643Z,38.40
2018-03-08T04:41:10.673Z,39.20
2018-03-08T04:42:10.705Z,40.50
2018-03-08T04:43:10.686Z,41.20
2018-03-08T04:44:10.698Z,40.70
2018-03-08T04:45:10.743Z,40.90
2018-03-08T04:46:10.732Z,41.40
2018-03-08T04:47:10.738Z,41.10
2018-03-08T04:48:10.775Z,41.20
2018-03-08T04:49:10.779Z,42.10
2018-03-08T04:50:10.780Z,44.50
2018-03-08T04:51:10.804Z,43.20
2018-03-08T04:52:10.811Z,42.90
2018-03-08T04:53:10.829Z,43.80
2018-03-08T04:54:10.881Z,44.80
2018-03-08T04:55:10.866Z,45.30
2018-03-08T04:56:10.882Z,44.70
2018-03-08T04:57:10.894Z,47.10
2018-03-08T04:58:10.905Z,45.20
2018-03-08T04:59:10.967Z,45.90
2018-03-08T05:00:10.945Z,46.60
2018-03-08T05:01:10.948Z,46.60
2018-03-08T05:02:10.962Z,46.90
2018-03-08T05:03:10.970Z,47.50
2018-03-08T05:04:10.999Z,47.40
2018-03-08T05:05:11.023Z,47.20
2018-03-08T05:06:11.060Z,46.20
2018-03-08T05:07:11.035Z,48.40
2018-03-08T05:08:11.051Z,47.40
2018-03-08T05:09:11.062Z,44.90
2018-03-08T05:10:11.080Z,46.70
2018-03-08T05:11:11.094Z,47.80
2018-03-08T05:12:11.108Z,47.00
2018-03-08T05:13:11.208Z,47.00
2018-03-08T05:14:11.160Z,47.90
2018-03-08T05:15:11.162Z,47.20
2018-03-08T05:16:11.188Z,45.70
2018-03-08T05:17:11.234Z,46.60
2018-03-08T05:18:11.266Z,46.50
2018-03-08T05:19:11.219Z,46.60
2018-03-08T05:20:12.104Z,48.50
2018-03-08T05:21:11.240Z,48.00
2018-03-08T05:22:11.256Z,49.10
2018-03-08T05:23:11.278Z,47.40
2018-03-08T05:24:11.289Z,51.20
2018-03-08T05:25:11.302Z,50.70
2018-03-08T05:26:11.316Z,49.80
2018-03-08T05:27:11.372Z,48.20
2018-03-08T05:28:11.350Z,47.60
2018-03-08T05:29:11.361Z,50.00
2018-03-08T05:30:11.390Z,49.00
2018-03-08T05:31:11.458Z,48.50
2018-03-08T05:32:11.442Z,47.70
2018-03-08T05:33:11.431Z,47.20
2018-03-08T05:34:11.459Z,47.30
2018-03-08T05:35:11.455Z,48.00
2018-03-08T05:36:11.471Z,48.80
2018-03-08T05:37:11.533Z,49.60
2018-03-08T05:38:11.507Z,48.40
2018-03-08T05:39:11.558Z,47.50
2018-03-08T05:40:11.526Z,45.60
2018-03-08T05:41:11.545Z,46.70
2018-03-08T05:42:11.557Z,46.30
2018-03-08T05:43:11.568Z,46.10
2018-03-08T05:44:11.590Z,45.90
2018-03-08T05:45:11.627Z,45.40
2018-03-08T05:46:11.634Z,47.90
2018-03-08T05:47:11.624Z,46.80
2018-03-08T05:48:11.659Z,46.40
2018-03-08T05:49:11.759Z,46.30
2018-03-08T05:50:11.685Z,45.70
2018-03-08T05:51:11.689Z,44.60
2018-03-08T05:52:11.711Z,43.40
2018-03-08T05:53:11.720Z,43.40
2018-03-08T05:54:11.747Z,42.30
2018-03-08T05:55:11.742Z,41.50
2018-03-08T05:56:11.769Z,39.00
2018-03-08T05:57:11.776Z,40.10
2018-03-08T05:58:11.788Z,41.00
2018-03-08T05:59:11.823Z,39.90
2018-03-08T06:00:11.864Z,39.40
2018-03-08T06:01:11.871Z,38.70
2018-03-08T06:02:11.852Z,38.20
2018-03-08T06:03:11.871Z,40.70
2018-03-08T06:04:11.888Z,41.30
2018-03-08T06:05:11.934Z,38.70
2018-03-08T06:06:11.912Z,36.20
2018-03-08T06:07:11.953Z,35.20
2018-03-08T06:08:11.944Z,36.90
2018-03-08T06:09:11.975Z,35.20
2018-03-08T06:10:11.999Z,33.70
2018-03-08T06:11:11.999Z,34.60
2018-03-08T06:12:12.001Z,33.50
2018-03-08T06:13:12.054Z,32.70
2018-03-08T06:14:12.034Z,33.40
2018-03-08T06:15:12.076Z,33.20
2018-03-08T06:16:12.056Z,34.80
2018-03-08T06:17:12.100Z,33.40
2018-03-08T06:18:12.104Z,32.00
2018-03-08T06:19:12.141Z,33.10
2018-03-08T06:20:12.134Z,31.20
2018-03-08T06:21:12.165Z,30.30
2018-03-08T06:22:12.194Z,30.10
2018-03-08T06:23:12.174Z,29.90
2018-03-08T06:24:12.206Z,29.80
2018-03-08T06:25:12.204Z,30.80
2018-03-08T06:26:12.244Z,30.80
2018-03-08T06:27:12.231Z,29.00
2018-03-08T06:28:12.242Z,30.00
2018-03-08T06:29:12.263Z,29.20
2018-03-08T06:30:12.264Z,29.80
2018-03-08T06:31:12.286Z,29.60
2018-03-08T06:32:12.301Z,28.10
2018-03-08T06:33:12.328Z,29.20
2018-03-08T06:34:12.325Z,29.50
2018-03-08T06:35:12.344Z,29.70
2018-03-08T06:36:12.381Z,29.60
2018-03-08T06:37:12.379Z,29.40
2018-03-08T06:38:12.386Z,27.50
2018-03-08T06:39:12.437Z,28.00
2018-03-08T06:40:12.415Z,26.90
2018-03-08T06:41:12.462Z,27.00
2018-03-08T06:42:12.453Z,26.00
2018-03-08T06:43:12.469Z,25.90
2018-03-08T06:44:12.477Z,25.40
2018-03-08T06:45:12.490Z,26.00
2018-03-08T06:46:12.509Z,25.90
2018-03-08T06:47:12.513Z,25.50
2018-03-08T06:48:12.599Z,24.40
2018-03-08T06:49:12.548Z,25.10
2018-03-08T06:50:12.578Z,24.60
2018-03-08T06:51:12.605Z,23.40
2018-03-08T06:52:12.667Z,23.70
2018-03-08T06:53:12.617Z,22.60
2018-03-08T06:54:12.634Z,23.90
2018-03-08T06:55:12.650Z,23.20
2018-03-08T06:56:12.662Z,24.60
2018-03-08T06:57:12.682Z,24.60
2018-03-08T06:58:12.698Z,24.20
2018-03-08T06:59:12.705Z,24.40
2018-03-08T07:00:12.721Z,24.40
2018-03-08T07:01:12.734Z,25.20
2018-03-08T07:02:12.769Z,23.60
2018-03-08T07:03:12.760Z,24.40
2018-03-08T07:04:12.802Z,23.90
2018-03-08T07:05:12.803Z,23.70
2018-03-08T07:06:12.814Z,24.60
2018-03-08T07:07:12.821Z,24.80
2018-03-08T07:08:12.846Z,23.00
2018-03-08T07:09:12.855Z,23.90
2018-03-08T07:10:12.860Z,24.50
2018-03-08T07:11:12.897Z,23.60
2018-03-08T07:12:12.905Z,23.20
2018-03-08T07:13:13.034Z,22.60
2018-03-08T07:14:12.932Z,23.30
2018-03-08T07:15:12.944Z,24.20
2018-03-08T07:16:12.979Z,23.30
2018-03-08T07:17:13.069Z,23.60
2018-03-08T07:18:12.986Z,24.60
2018-03-08T07:19:13.003Z,23.10
2018-03-08T07:20:13.031Z,22.30
2018-03-08T07:21:13.074Z,22.40
2018-03-08T07:22:13.043Z,22.60
2018-03-08T07:23:13.060Z,22.60
2018-03-08T07:24:13.110Z,22.20
2018-03-08T07:25:13.093Z,21.90
2018-03-08T07:26:13.114Z,22.40
2018-03-08T07:27:13.163Z,20.80
2018-03-08T07:28:13.147Z,22.20
2018-03-08T07:29:13.154Z,21.70
2018-03-08T07:30:13.165Z,22.60
2018-03-08T07:31:13.195Z,21.50
2018-03-08T07:32:13.226Z,21.30
2018-03-08T07:33:13.268Z,21.80
2018-03-08T07:34:13.238Z,20.60
2018-03-08T07:35:13.271Z,20.40
2018-03-08T07:36:13.273Z,20.10
2018-03-08T07:37:13.281Z,19.70
2018-03-08T07:38:13.319Z,19.90
2018-03-08T07:39:13.328Z,19.10
2018-03-08T07:40:13.325Z,19.70
2018-03-08T07:41:13.366Z,19.40
2018-03-08T07:42:13.358Z,19.10
2018-03-08T07:43:13.368Z,18.10
2018-03-08T07:44:13.390Z,19.40
2018-03-08T07:45:13.410Z,19.50
2018-03-08T07:46:13.417Z,19.60
2018-03-08T07:47:13.469Z,16.90
2018-03-08T07:48:13.444Z,18.10
2018-03-08T07:49:13.465Z,18.00
2018-03-08T07:50:13.480Z,17.80
2018-03-08T07:51:13.507Z,18.20
2018-03-08T07:52:13.544Z,16.80
2018-03-08T07:53:13.531Z,16.30
2018-03-08T07:54:13.551Z,15.90
2018-03-08T07:55:13.547Z,16.20
2018-03-08T07:56:13.572Z,15.50
2018-03-08T07:57:13.610Z,15.40
2018-03-08T07:58:13.636Z,14.90
2018-03-08T07:59:13.624Z,14.00
2018-03-08T08:00:13.649Z,14.40
2018-03-08T08:01:13.647Z,14.10
2018-03-08T08:02:13.735Z,14.40
2018-03-08T08:03:13.682Z,14.40
2018-03-08T08:04:13.706Z,14.40
2018-03-08T08:05:13.706Z,14.70
2018-03-08T08:06:13.729Z,14.60
2018-03-08T08:07:13.829Z,14.30
2018-03-08T08:08:13.755Z,13.90
2018-03-08T08:09:13.767Z,13.40
2018-03-08T08:10:13.875Z,13.40
2018-03-08T08:11:13.818Z,12.80
2018-03-08T08:12:13.854Z,13.50
2018-03-08T08:13:13.863Z,14.10
2018-03-08T08:14:13.850Z,13.60
2018-03-08T08:15:13.870Z,13.30
2018-03-08T08:16:13.913Z,13.60
2018-03-08T08:17:13.904Z,14.10
2018-03-08T08:18:13.919Z,14.30
2018-03-08T08:19:13.936Z,14.50
2018-03-08T08:20:13.971Z,13.30
2018-03-08T08:21:13.967Z,14.10
2018-03-08T08:22:14.001Z,13.90
2018-03-08T08:23:13.999Z,13.30
2018-03-08T08:24:14.054Z,14.00
2018-03-08T08:25:14.057Z,15.00
2018-03-08T08:26:14.064Z,14.50
2018-03-08T08:27:14.092Z,16.10
2018-03-08T08:28:14.117Z,15.60
2018-03-08T08:29:14.113Z,14.30
2018-03-08T08:30:14.141Z,14.90
2018-03-08T08:31:14.176Z,14.90
2018-03-08T08:32:14.165Z,13.90
2018-03-08T08:33:14.186Z,14.10
2018-03-08T08:34:14.245Z,14.40
2018-03-08T08:35:14.269Z,14.20
2018-03-08T08:36:14.235Z,14.00
2018-03-08T08:37:14.280Z,13.90
2018-03-08T08:38:14.304Z,13.70
2018-03-08T08:39:14.300Z,14.00
2018-03-08T08:40:14.351Z,14.30
2018-03-08T08:41:14.374Z,14.60
2018-03-08T08:42:14.384Z,13.80
2018-03-08T08:43:14.379Z,13.70
2018-03-08T08:44:14.396Z,13.70
2018-03-08T08:45:14.415Z,13.50
2018-03-08T08:46:14.433Z,13.80
2018-03-08T08:47:14.483Z,13.70
2018-03-08T08:48:14.483Z,13.70
2018-03-08T08:49:14.486Z,13.50
2018-03-08T08:50:14.506Z,13.60
2018-03-08T08:51:14.541Z,13.30
2018-03-08T08:52:14.550Z,12.90
2018-03-08T08:53:14.587Z,13.70
2018-03-08T08:54:14.580Z,14.70
2018-03-08T08:55:14.615Z,14.40
2018-03-08T08:56:14.630Z,13.20
2018-03-08T08:57:14.636Z,13.00
2018-03-08T08:58:14.657Z,13.40
2018-03-08T08:59:14.705Z,13.00
2018-03-08T09:00:14.710Z,13.40
2018-03-08T09:01:14.727Z,14.20
2018-03-08T09:02:14.749Z,13.00
2018-03-08T09:03:14.741Z,13.10
2018-03-08T09:04:14.770Z,12.00
2018-03-08T09:05:14.783Z,12.50
2018-03-08T09:06:14.895Z,12.80
2018-03-08T09:07:14.946Z,12.40
2018-03-08T09:08:14.956Z,12.00
2018-03-08T09:09:14.858Z,11.40
2018-03-08T09:10:14.873Z,12.70
2018-03-08T09:11:14.893Z,13.70
2018-03-08T09:12:14.924Z,14.00
2018-03-08T09:13:14.924Z,11.80
2018-03-08T09:14:14.975Z,10.30
2018-03-08T09:15:14.992Z,10.10
2018-03-08T09:16:14.971Z,10.20
2018-03-08T09:17:15.002Z,9.10
2018-03-08T09:18:15.021Z,8.30
2018-03-08T09:19:15.052Z,8.60
2018-03-08T09:20:15.081Z,8.20
2018-03-08T09:21:15.105Z,9.10
2018-03-08T09:22:15.083Z,7.80
2018-03-08T09:23:15.137Z,8.70
2018-03-08T09:24:15.121Z,8.60
2018-03-08T09:25:15.146Z,7.80
2018-03-08T09:26:15.141Z,8.80
2018-03-08T09:27:15.163Z,7.90
2018-03-08T09:28:15.184Z,7.90
2018-03-08T09:29:15.229Z,8.20
2018-03-08T09:30:15.214Z,7.60
2018-03-08T09:31:15.253Z,7.30
2018-03-08T09:32:15.299Z,7.30
2018-03-08T09:33:15.278Z,7.20
2018-03-08T09:34:15.305Z,6.60
2018-03-08T09:35:15.317Z,6.90
2018-03-08T09:36:15.337Z,7.20
2018-03-08T09:37:15.336Z,7.20
2018-03-08T09:38:15.356Z,7.00
2018-03-08T09:39:15.382Z,6.40
2018-03-08T09:40:15.400Z,7.00
2018-03-08T09:41:15.415Z,6.50
2018-03-08T09:42:15.439Z,7.10
2018-03-08T09:43:15.442Z,6.00
2018-03-08T09:44:15.489Z,5.80
2018-03-08T09:45:15.474Z,5.40
2018-03-08T09:46:15.498Z,5.50
2018-03-08T09:47:15.530Z,4.80
2018-03-08T09:48:15.559Z,5.00
2018-03-08T09:49:15.552Z,4.80
2018-03-08T09:50:15.572Z,6.60
2018-03-08T09:51:15.580Z,9.10
2018-03-08T09:52:15.636Z,4.80
2018-03-08T09:53:15.629Z,4.90
2018-03-08T09:54:15.670Z,4.60
2018-03-08T09:55:15.654Z,4.50
2018-03-08T09:56:15.695Z,4.30
2018-03-08T09:57:15.686Z,5.20
2018-03-08T09:58:15.708Z,6.30
2018-03-08T09:59:15.730Z,7.80
2018-03-08T10:00:15.810Z,5.80
2018-03-08T10:01:15.763Z,6.20
2018-03-08T10:02:15.770Z,4.80
2018-03-08T10:03:15.806Z,7.90
2018-03-08T10:04:15.839Z,4.20
2018-03-08T10:05:15.842Z,7.50
2018-03-08T10:06:15.840Z,9.30
2018-03-08T10:07:15.856Z,3.80
2018-03-08T10:08:15.942Z,6.10
2018-03-08T10:09:15.896Z,7.20
2018-03-08T10:10:15.913Z,5.70
2018-03-08T10:11:15.929Z,3.90
2018-03-08T10:12:15.962Z,6.20
2018-03-08T10:13:15.960Z,4.10
2018-03-08T10:14:16.013Z,3.50
2018-03-08T10:15:16.004Z,3.80
2018-03-08T10:16:16.011Z,4.00
2018-03-08T10:17:16.055Z,3.50
2018-03-08T10:18:16.099Z,3.30
2018-03-08T10:19:16.090Z,4.80
2018-03-08T10:20:16.106Z,8.90
2018-03-08T10:21:16.112Z,3.30
2018-03-08T10:22:16.125Z,3.60
2018-03-08T10:23:16.156Z,4.90
2018-03-08T10:24:16.188Z,4.20
2018-03-08T10:25:16.166Z,5.00
2018-03-08T10:26:16.193Z,5.50
2018-03-08T10:27:16.209Z,7.80
2018-03-08T10:28:16.221Z,5.70
2018-03-08T10:29:16.237Z,3.60
2018-03-08T10:30:16.250Z,9.20
2018-03-08T10:31:16.310Z,5.50
2018-03-08T10:32:16.308Z,3.50
2018-03-08T10:33:16.384Z,4.50
2018-03-08T10:34:16.353Z,4.40
2018-03-08T10:35:44.055Z,6.30
2018-03-08T10:36:16.358Z,4.40
2018-03-08T10:37:16.409Z,4.10
2018-03-08T10:38:16.419Z,5.90
2018-03-08T10:40:16.439Z,3.90
2018-03-08T10:41:16.591Z,3.60
2018-03-08T10:42:16.458Z,4.00
2018-03-08T10:43:16.489Z,5.50
2018-03-08T10:44:16.597Z,4.00
2018-03-08T10:45:16.512Z,5.00
2018-03-08T10:46:16.544Z,4.20
2018-03-08T10:47:16.548Z,4.30
2018-03-08T10:48:16.569Z,3.70
2018-03-08T10:49:16.640Z,3.70
2018-03-08T10:50:16.762Z,3.70
2018-03-08T10:51:16.832Z,5.50
2018-03-08T10:52:16.741Z,4.20
2018-03-08T10:53:16.693Z,5.70
2018-03-08T10:54:16.725Z,3.10
2018-03-08T10:55:16.692Z,3.50
2018-03-08T10:56:16.726Z,3.50
2018-03-08T10:57:16.761Z,3.90
2018-03-08T10:58:16.752Z,4.00
2018-03-08T10:59:16.779Z,5.00
2018-03-08T11:00:16.782Z,5.10
2018-03-08T11:01:16.824Z,6.40
2018-03-08T11:02:16.815Z,7.40
2018-03-08T11:03:16.871Z,5.30
2018-03-08T11:04:16.942Z,4.40
2018-03-08T11:05:16.873Z,5.00
2018-03-08T11:06:16.893Z,5.20
2018-03-08T11:07:16.918Z,4.80
2018-03-08T11:08:16.926Z,4.30
2018-03-08T11:09:16.943Z,5.50
2018-03-08T11:10:16.973Z,5.60
2018-03-08T11:11:17.058Z,4.70
2018-03-08T11:12:17.034Z,3.90
2018-03-08T11:13:17.015Z,4.40
2018-03-08T11:14:17.042Z,5.00
2018-03-08T11:15:17.115Z,5.00
2018-03-08T11:16:17.083Z,4.80
2018-03-08T11:17:17.097Z,4.40
2018-03-08T11:18:17.382Z,4.80
2018-03-08T11:19:17.143Z,4.50
2018-03-08T11:20:17.154Z,4.50
2018-03-08T11:21:17.234Z,4.00
2018-03-08T11:22:17.234Z,4.80
2018-03-08T11:23:17.231Z,4.90
2018-03-08T11:24:17.231Z,4.50
2018-03-08T11:25:17.255Z,4.10
2018-03-08T11:26:17.250Z,4.60
2018-03-08T11:27:17.274Z,5.00
2018-03-08T11:28:17.331Z,4.80
2018-03-08T11:29:17.324Z,4.40
2018-03-08T11:30:17.350Z,4.70
2018-03-08T11:31:17.363Z,4.40
2018-03-08T11:32:17.416Z,4.70
2018-03-08T11:33:17.374Z,4.30
2018-03-08T11:34:17.416Z,4.60
2018-03-08T11:35:17.431Z,4.80
2018-03-08T11:36:17.470Z,4.20
2018-03-08T11:37:17.459Z,4.90
2018-03-08T11:38:17.467Z,4.90
2018-03-08T11:39:17.498Z,4.90
2018-03-08T11:40:17.506Z,4.50
2018-03-08T11:41:17.534Z,4.60
2018-03-08T11:42:17.568Z,4.10
2018-03-08T11:43:17.568Z,4.70
2018-03-08T11:44:17.608Z,4.80
2018-03-08T11:45:17.598Z,4.80
2018-03-08T11:46:17.623Z,4.70
2018-03-08T11:47:17.638Z,4.60
2018-03-08T11:48:17.653Z,4.90
2018-03-08T11:49:17.685Z,5.00
2018-03-08T11:50:17.682Z,4.60
2018-03-08T11:51:17.704Z,4.30
2018-03-08T11:52:17.778Z,4.70
2018-03-08T11:53:17.761Z,4.20
2018-03-08T11:54:17.768Z,4.40
2018-03-08T11:55:17.864Z,4.50
2018-03-08T11:56:17.944Z,4.70
2018-03-08T11:57:17.852Z,4.80
2018-03-08T11:58:18.025Z,4.50
2018-03-08T11:59:17.846Z,4.10
2018-03-08T12:00:17.915Z,4.20
2018-03-08T12:01:17.882Z,4.80
2018-03-08T12:02:17.905Z,4.70
2018-03-08T12:03:17.915Z,4.00
2018-03-08T12:04:17.928Z,4.30
2018-03-08T12:05:17.959Z,4.50
2018-03-08T12:06:18.062Z,4.00
2018-03-08T12:07:17.996Z,4.30
2018-03-08T12:08:18.107Z,4.20
2018-03-08T12:09:18.026Z,4.00
2018-03-08T12:10:18.056Z,4.20
2018-03-08T12:11:18.093Z,4.20
2018-03-08T12:12:18.093Z,4.30
2018-03-08T12:13:18.105Z,4.40
2018-03-08T12:14:18.164Z,4.00
2018-03-08T12:15:18.172Z,3.80
2018-03-08T12:16:18.191Z,4.00
2018-03-08T12:17:18.221Z,4.40
2018-03-08T12:18:18.199Z,4.10
2018-03-08T12:19:18.205Z,4.30
2018-03-08T12:20:18.232Z,4.30
2018-03-08T12:21:18.240Z,4.30
2018-03-08T12:22:18.270Z,3.80
2018-03-08T12:23:18.308Z,3.30
2018-03-08T12:24:18.323Z,3.60
2018-03-08T12:25:18.404Z,3.70
2018-03-08T12:26:18.398Z,3.30
2018-03-08T12:27:18.366Z,3.90
2018-03-08T12:28:18.358Z,3.40
2018-03-08T12:29:18.402Z,3.40
2018-03-08T12:30:18.406Z,3.20
2018-03-08T12:31:18.422Z,3.20
2018-03-08T12:32:18.515Z,6.00
2018-03-08T12:33:18.513Z,6.10
2018-03-08T12:34:18.502Z,4.30
2018-03-08T12:35:18.541Z,4.30
2018-03-08T12:36:33.052Z,4.30
2018-03-08T12:37:18.565Z,4.40
2018-03-08T12:38:18.568Z,3.90
2018-03-08T12:39:18.560Z,3.80
2018-03-08T12:40:18.578Z,3.60
2018-03-08T12:41:18.617Z,4.30
2018-03-08T12:42:18.639Z,4.30
2018-03-08T12:43:18.650Z,4.50
2018-03-08T12:44:18.680Z,3.40
2018-03-08T12:45:18.675Z,3.10
2018-03-08T12:46:18.684Z,3.40
2018-03-08T12:47:18.729Z,2.90
2018-03-08T12:48:18.731Z,2.80
2018-03-08T12:49:18.806Z,3.00
2018-03-08T12:50:18.811Z,3.00
2018-03-08T12:51:18.822Z,3.10
2018-03-08T12:52:18.808Z,3.10
2018-03-08T12:53:18.848Z,3.20
2018-03-08T12:54:18.839Z,3.20
2018-03-08T12:55:18.853Z,3.70
2018-03-08T12:56:18.861Z,4.20
2018-03-08T12:57:18.934Z,3.50
2018-03-08T12:58:18.936Z,3.50
2018-03-08T12:59:18.920Z,3.30
2018-03-08T13:00:18.977Z,3.20